createdAt,value
2023-01-15T00:00:58.203Z,7.70
2023-01-15T00:01:58.302Z,7.60
2023-01-15T00:02:58.244Z,7.30
2023-01-15T00:03:58.042Z,6.00
2023-01-15T00:04:58.156Z,7.10
2023-01-15T00:05:58.142Z,3.80
2023-01-15T00:06:58.137Z,2.20
2023-01-15T00:07:58.225Z,3.30
2023-01-15T00:08:58.079Z,2.90
2023-01-15T00:09:58.088Z,4.30
2023-01-15T00:10:58.109Z,3.60
2023-01-15T00:11:58.042Z,2.70
2023-01-15T00:12:58.132Z,2.80
2023-01-15T00:13:58.134Z,2.20
2023-01-15T00:14:58.296Z,3.00
2023-01-15T00:15:58.099Z,3.60
2023-01-15T00:16:58.072Z,3.10
2023-01-15T00:17:58.071Z,4.00
2023-01-15T00:18:58.132Z,4.10
2023-01-15T00:19:58.117Z,3.50
2023-01-15T00:20:57.838Z,4.60
2023-01-15T00:21:58.005Z,2.80
2023-01-15T00:22:57.982Z,4.70
2023-01-15T00:23:57.954Z,2.60
2023-01-15T00:24:57.954Z,4.20
2023-01-15T00:25:58.029Z,2.80
2023-01-15T00:26:57.955Z,5.00
2023-01-15T00:27:58.200Z,2.40
2023-01-15T00:28:57.903Z,3.60
2023-01-15T00:29:57.947Z,4.60
2023-01-15T00:30:57.978Z,4.10
2023-01-15T00:31:57.878Z,3.90
2023-01-15T00:32:57.861Z,3.40
2023-01-15T00:33:57.934Z,5.00
2023-01-15T00:34:57.920Z,4.60
2023-01-15T00:35:57.811Z,4.20
2023-01-15T00:36:57.790Z,1.70
2023-01-15T00:37:57.782Z,2.80
2023-01-15T00:38:57.839Z,4.20
2023-01-15T00:39:57.853Z,3.00
2023-01-15T00:40:57.834Z,3.10
2023-01-15T00:41:57.758Z,2.40
2023-01-15T00:42:57.734Z,3.10
2023-01-15T00:43:57.707Z,4.20
2023-01-15T00:44:57.746Z,5.20
2023-01-15T00:45:57.792Z,3.30
2023-01-15T00:46:57.685Z,2.40
2023-01-15T00:47:57.671Z,2.90
2023-01-15T00:48:57.720Z,3.40
2023-01-15T00:49:57.700Z,2.60
2023-01-15T00:50:57.750Z,2.90
2023-01-15T00:51:57.658Z,2.50
2023-01-15T00:52:57.633Z,0.70
2023-01-15T00:53:57.624Z,2.40
2023-01-15T00:54:57.635Z,3.00
2023-01-15T00:55:57.724Z,1.20
2023-01-15T00:56:57.654Z,2.00
2023-01-15T00:57:57.582Z,1.20
2023-01-15T00:58:57.574Z,4.30
2023-01-15T00:59:57.640Z,4.70
2023-01-15T01:00:57.582Z,1.00
2023-01-15T01:01:57.699Z,1.60
2023-01-15T01:02:57.697Z,3.00
2023-01-15T01:03:57.576Z,2.10
2023-01-15T01:04:57.531Z,2.50
2023-01-15T01:05:57.576Z,1.80
2023-01-15T01:06:57.521Z,3.10
2023-01-15T01:07:57.631Z,3.60
2023-01-15T01:08:57.511Z,2.30
2023-01-15T01:09:57.554Z,1.80
2023-01-15T01:10:57.498Z,1.40
2023-01-15T01:11:57.515Z,2.40
2023-01-15T01:12:57.540Z,2.10
2023-01-15T01:13:57.463Z,2.70
2023-01-15T01:14:57.446Z,1.90
2023-01-15T01:15:57.456Z,2.40
2023-01-15T01:16:57.433Z,1.70
2023-01-15T01:17:57.503Z,2.70
2023-01-15T01:18:57.411Z,3.70
2023-01-15T01:19:57.398Z,0.90
2023-01-15T01:20:57.370Z,3.40
2023-01-15T01:21:57.433Z,1.20
2023-01-15T01:22:57.223Z,1.10
2023-01-15T01:23:57.454Z,2.30
2023-01-15T01:24:57.358Z,2.30
2023-01-15T01:25:57.321Z,2.10
2023-01-15T01:26:57.287Z,2.00
2023-01-15T01:27:57.337Z,2.30
2023-01-15T01:28:57.317Z,1.30
2023-01-15T01:29:57.351Z,3.50
2023-01-15T01:30:57.260Z,1.70
2023-01-15T01:31:57.260Z,1.70
2023-01-15T01:32:57.257Z,2.60
2023-01-15T01:33:57.244Z,2.40
2023-01-15T01:34:57.291Z,1.40
2023-01-15T01:35:57.252Z,1.20
2023-01-15T01:36:57.214Z,2.90
2023-01-15T01:37:57.189Z,1.30
2023-01-15T01:38:57.166Z,1.70
2023-01-15T01:39:57.223Z,1.20
2023-01-15T01:40:57.278Z,2.60
2023-01-15T01:41:57.168Z,1.90
2023-01-15T01:42:57.130Z,1.90
2023-01-15T01:43:57.166Z,0.70
2023-01-15T01:44:57.144Z,1.00
2023-01-15T01:45:57.139Z,1.30
2023-01-15T01:46:57.169Z,1.50
2023-01-15T01:47:57.068Z,2.10
2023-01-15T01:48:57.063Z,2.50
2023-01-15T01:49:57.040Z,2.10
2023-01-15T01:50:57.091Z,0.70
2023-01-15T01:51:57.064Z,1.70
2023-01-15T01:52:57.107Z,2.20
2023-01-15T01:53:56.999Z,1.20
2023-01-15T01:54:56.968Z,1.70
2023-01-15T01:55:56.944Z,1.70
2023-01-15T01:56:56.920Z,1.20
2023-01-15T01:57:57.056Z,1.50
2023-01-15T01:58:56.951Z,1.00
2023-01-15T01:59:56.935Z,1.80
2023-01-15T02:00:57.096Z,2.20
2023-01-15T02:01:56.982Z,1.50
2023-01-15T02:02:56.888Z,2.20
2023-01-15T02:03:56.984Z,0.50
2023-01-15T02:04:56.906Z,1.60
2023-01-15T02:05:56.905Z,1.00
2023-01-15T02:06:56.916Z,1.80
2023-01-15T02:07:57.001Z,1.30
2023-01-15T02:08:56.889Z,1.80
2023-01-15T02:09:56.868Z,2.50
2023-01-15T02:10:56.870Z,2.10
2023-01-15T02:11:56.832Z,2.10
2023-01-15T02:12:56.902Z,1.90
2023-01-15T02:13:56.804Z,1.40
2023-01-15T02:14:56.884Z,2.30
2023-01-15T02:15:56.813Z,1.40
2023-01-15T02:16:56.742Z,1.70
2023-01-15T02:17:56.741Z,3.40
2023-01-15T02:18:56.735Z,2.00
2023-01-15T02:19:56.731Z,1.00
2023-01-15T02:20:56.800Z,2.30
2023-01-15T02:21:56.541Z,1.60
2023-01-15T02:22:56.728Z,3.00
2023-01-15T02:23:56.680Z,1.20
2023-01-15T02:24:56.745Z,4.80
2023-01-15T02:25:56.656Z,2.10
2023-01-15T02:26:56.631Z,2.20
2023-01-15T02:27:56.665Z,2.80
2023-01-15T02:28:56.607Z,3.00
2023-01-15T02:29:56.678Z,2.60
2023-01-15T02:30:56.730Z,1.30
2023-01-15T02:31:56.717Z,2.60
2023-01-15T02:32:56.641Z,1.90
2023-01-15T02:33:56.564Z,3.80
2023-01-15T02:34:58.136Z,2.40
2023-01-15T02:35:56.544Z,2.90
2023-01-15T02:36:56.603Z,2.90
2023-01-15T02:37:56.511Z,1.90
2023-01-15T02:38:56.501Z,2.80
2023-01-15T02:39:56.496Z,2.50
2023-01-15T02:40:56.477Z,2.20
2023-01-15T02:41:56.551Z,2.00
2023-01-15T02:42:56.457Z,1.70
2023-01-15T02:43:56.449Z,1.90
2023-01-15T02:44:56.488Z,2.40
2023-01-15T02:45:56.550Z,1.90
2023-01-15T02:46:56.552Z,3.00
2023-01-15T02:47:56.533Z,2.60
2023-01-15T02:48:56.447Z,2.00
2023-01-15T02:49:56.245Z,3.10
2023-01-15T02:50:56.401Z,1.90
2023-01-15T02:51:56.368Z,2.80
2023-01-15T02:52:56.491Z,3.20
2023-01-15T02:53:56.379Z,2.70
2023-01-15T02:54:56.355Z,1.90
2023-01-15T02:55:56.334Z,2.10
2023-01-15T02:56:56.391Z,2.60
2023-01-15T02:57:56.393Z,2.40
2023-01-15T02:58:56.311Z,3.80
2023-01-15T02:59:56.290Z,3.40
2023-01-15T03:00:56.415Z,3.70
2023-01-15T03:01:56.394Z,2.70
2023-01-15T03:02:56.353Z,2.70
2023-01-15T03:03:56.325Z,2.10
2023-01-15T03:04:56.227Z,2.60
2023-01-15T03:05:56.201Z,3.40
2023-01-15T03:06:56.190Z,1.80
2023-01-15T03:07:56.341Z,3.10
2023-01-15T03:08:56.156Z,2.50
2023-01-15T03:09:56.148Z,2.30
2023-01-15T03:10:56.214Z,3.40
2023-01-15T03:11:56.120Z,4.00
2023-01-15T03:12:56.111Z,2.10
2023-01-15T03:13:56.296Z,4.10
2023-01-15T03:14:56.096Z,2.10
2023-01-15T03:15:56.074Z,3.20
2023-01-15T03:16:56.095Z,3.00
2023-01-15T03:17:56.061Z,3.90
2023-01-15T03:18:56.109Z,2.70
2023-01-15T03:19:56.092Z,3.30
2023-01-15T03:20:57.510Z,1.70
2023-01-15T03:21:56.017Z,2.60
2023-01-15T03:22:55.992Z,3.20
2023-01-15T03:23:55.978Z,2.60
2023-01-15T03:24:56.065Z,1.80
2023-01-15T03:25:55.893Z,3.70
2023-01-15T03:26:55.964Z,2.10
2023-01-15T03:27:55.956Z,1.10
2023-01-15T03:28:55.927Z,1.80
2023-01-15T03:29:55.907Z,1.90
2023-01-15T03:30:56.111Z,2.80
2023-01-15T03:31:55.960Z,2.50
2023-01-15T03:32:55.947Z,2.00
2023-01-15T03:33:55.933Z,1.30
2023-01-15T03:34:56.003Z,2.60
2023-01-15T03:35:55.975Z,2.70
2023-01-15T03:36:55.948Z,3.40
2023-01-15T03:37:55.836Z,3.10
2023-01-15T03:38:55.884Z,1.20
2023-01-15T03:39:55.865Z,1.50
2023-01-15T03:40:55.958Z,2.90
2023-01-15T03:41:55.819Z,2.50
2023-01-15T03:42:55.775Z,0.90
2023-01-15T03:43:55.860Z,3.40
2023-01-15T03:44:55.828Z,1.80
2023-01-15T03:45:55.847Z,1.10
2023-01-15T03:46:55.786Z,2.20
2023-01-15T03:47:55.752Z,2.00
2023-01-15T03:48:55.738Z,1.50
2023-01-15T03:49:55.711Z,1.00
2023-01-15T03:50:55.679Z,1.90
2023-01-15T03:51:55.804Z,3.10
2023-01-15T03:52:55.775Z,1.80
2023-01-15T03:53:55.758Z,1.80
2023-01-15T03:54:55.813Z,1.90
2023-01-15T03:55:55.711Z,3.40
2023-01-15T03:56:55.744Z,2.50
2023-01-15T03:57:55.768Z,2.40
2023-01-15T03:58:55.674Z,1.60
2023-01-15T03:59:55.672Z,3.40
2023-01-15T04:00:55.512Z,2.50
2023-01-15T04:01:55.622Z,2.70
2023-01-15T04:02:55.530Z,1.80
2023-01-15T04:03:55.551Z,1.80
2023-01-15T04:04:55.565Z,1.60
2023-01-15T04:05:55.563Z,3.40
2023-01-15T04:06:55.550Z,1.30
2023-01-15T04:07:55.529Z,4.30
2023-01-15T04:08:55.651Z,2.50
2023-01-15T04:09:55.463Z,2.40
2023-01-15T04:10:55.431Z,2.00
2023-01-15T04:11:55.560Z,1.40
2023-01-15T04:12:55.537Z,3.90
2023-01-15T04:13:55.594Z,2.60
2023-01-15T04:14:55.482Z,2.00
2023-01-15T04:15:55.502Z,1.50
2023-01-15T04:16:55.262Z,2.00
2023-01-15T04:17:55.466Z,2.30
2023-01-15T04:18:55.454Z,2.30
2023-01-15T04:19:55.519Z,2.40
2023-01-15T04:20:55.420Z,2.60
2023-01-15T04:21:55.404Z,2.20
2023-01-15T04:22:55.387Z,2.10
2023-01-15T04:23:55.463Z,0.80
2023-01-15T04:24:55.502Z,2.60
2023-01-15T04:25:55.264Z,1.80
2023-01-15T04:26:55.285Z,3.50
2023-01-15T04:27:55.339Z,1.80
2023-01-15T04:28:55.316Z,1.50
2023-01-15T04:29:55.375Z,2.00
2023-01-15T04:30:55.449Z,3.80
2023-01-15T04:31:55.124Z,4.30
2023-01-15T04:32:55.325Z,2.80
2023-01-15T04:33:55.324Z,2.50
2023-01-15T04:34:55.247Z,4.10
2023-01-15T04:35:55.317Z,3.70
2023-01-15T04:36:55.236Z,4.10
2023-01-15T04:37:55.241Z,1.50
2023-01-15T04:38:55.250Z,2.50
2023-01-15T04:39:55.242Z,2.80
2023-01-15T04:40:55.238Z,2.60
2023-01-15T04:41:55.315Z,2.30
2023-01-15T04:42:55.231Z,2.90
2023-01-15T04:43:55.154Z,3.00
2023-01-15T04:44:55.238Z,3.80
2023-01-15T04:45:55.259Z,2.40
2023-01-15T04:46:55.212Z,2.30
2023-01-15T04:47:55.110Z,3.30
2023-01-15T04:48:55.159Z,3.90
2023-01-15T04:49:55.032Z,3.20
2023-01-15T04:50:55.029Z,3.20
2023-01-15T04:51:55.088Z,4.40
2023-01-15T04:52:54.987Z,3.10
2023-01-15T04:53:54.969Z,2.40
2023-01-15T04:54:54.965Z,3.20
2023-01-15T04:55:54.970Z,2.40
2023-01-15T04:56:55.034Z,2.70
2023-01-15T04:57:55.015Z,3.90
2023-01-15T04:58:54.790Z,3.40
2023-01-15T04:59:54.913Z,4.10
2023-01-15T05:00:54.907Z,3.60
2023-01-15T05:02:03.976Z,2.40
2023-01-15T05:02:54.881Z,2.70
2023-01-15T05:03:54.961Z,2.40
2023-01-15T05:04:55.018Z,4.20
2023-01-15T05:05:54.914Z,1.50
2023-01-15T05:06:54.975Z,1.80
2023-01-15T05:07:54.971Z,4.00
2023-01-15T05:08:54.974Z,2.60
2023-01-15T05:09:54.898Z,3.70
2023-01-15T05:10:54.887Z,4.10
2023-01-15T05:11:54.873Z,3.90
2023-01-15T05:12:54.864Z,3.10
2023-01-15T05:13:54.842Z,2.30
2023-01-15T05:14:54.904Z,6.30
2023-01-15T05:15:54.853Z,3.00
2023-01-15T05:16:54.868Z,3.80
2023-01-15T05:17:54.792Z,4.70
2023-01-15T05:18:54.781Z,3.40
2023-01-15T05:19:54.858Z,3.10
2023-01-15T05:20:54.778Z,3.10
2023-01-15T05:21:54.796Z,2.50
2023-01-15T05:22:54.533Z,2.50
2023-01-15T05:23:54.764Z,3.40
2023-01-15T05:24:54.849Z,3.60
2023-01-15T05:25:54.694Z,4.00
2023-01-15T05:26:54.677Z,4.40
2023-01-15T05:27:54.745Z,3.80
2023-01-15T05:28:54.732Z,4.10
2023-01-15T05:29:54.712Z,5.30
2023-01-15T05:30:54.644Z,3.80
2023-01-15T05:31:54.702Z,3.00
2023-01-15T05:32:54.631Z,2.40
2023-01-15T05:33:54.623Z,4.60
2023-01-15T05:34:54.607Z,2.40
2023-01-15T05:35:54.678Z,3.80
2023-01-15T05:36:54.594Z,2.60
2023-01-15T05:37:54.446Z,5.10
2023-01-15T05:38:54.480Z,4.60
2023-01-15T05:39:54.587Z,4.10
2023-01-15T05:40:54.641Z,3.70
2023-01-15T05:41:54.554Z,4.90
2023-01-15T05:42:54.542Z,4.90
2023-01-15T05:43:54.535Z,6.50
2023-01-15T05:44:54.523Z,3.10
2023-01-15T05:45:54.572Z,3.70
2023-01-15T05:46:54.610Z,3.60
2023-01-15T05:47:54.612Z,4.80
2023-01-15T05:48:54.450Z,5.60
2023-01-15T05:49:54.454Z,6.00
2023-01-15T05:50:54.477Z,2.90
2023-01-15T05:51:54.486Z,3.30
2023-01-15T05:52:54.356Z,3.30
2023-01-15T05:53:54.544Z,5.20
2023-01-15T05:54:54.408Z,4.10
2023-01-15T05:55:54.427Z,4.10
2023-01-15T05:56:54.446Z,3.30
2023-01-15T05:57:54.412Z,4.30
2023-01-15T05:58:54.408Z,3.90
2023-01-15T05:59:54.392Z,3.20
2023-01-15T06:00:54.208Z,6.50
2023-01-15T06:01:54.286Z,4.70
2023-01-15T06:02:54.258Z,4.50
2023-01-15T06:03:54.403Z,5.60
2023-01-15T06:04:54.342Z,4.00
2023-01-15T06:05:54.157Z,5.20
2023-01-15T06:06:54.250Z,4.60
2023-01-15T06:07:54.313Z,3.50
2023-01-15T06:08:54.330Z,5.20
2023-01-15T06:09:54.211Z,4.30
2023-01-15T06:10:54.253Z,4.40
2023-01-15T06:11:54.298Z,4.70
2023-01-15T06:12:54.269Z,4.60
2023-01-15T06:13:54.234Z,4.60
2023-01-15T06:14:54.288Z,3.70
2023-01-15T06:15:54.214Z,5.20
2023-01-15T06:16:54.158Z,4.50
2023-01-15T06:17:53.955Z,4.20
2023-01-15T06:18:54.087Z,4.50
2023-01-15T06:19:54.251Z,5.40
2023-01-15T06:20:54.172Z,4.30
2023-01-15T06:21:54.091Z,5.60
2023-01-15T06:22:53.973Z,6.10
2023-01-15T06:23:54.166Z,4.00
2023-01-15T06:24:54.088Z,3.90
2023-01-15T06:25:54.100Z,6.80
2023-01-15T06:26:54.097Z,4.80
2023-01-15T06:27:54.087Z,7.20
2023-01-15T06:28:54.089Z,5.20
2023-01-15T06:29:54.014Z,4.50
2023-01-15T06:30:54.027Z,4.20
2023-01-15T06:31:54.110Z,6.00
2023-01-15T06:32:54.028Z,5.20
2023-01-15T06:33:54.038Z,4.70
2023-01-15T06:34:53.944Z,5.30
2023-01-15T06:35:54.036Z,5.20
2023-01-15T06:36:54.038Z,3.70
2023-01-15T06:37:53.951Z,6.30
2023-01-15T06:38:53.960Z,4.20
2023-01-15T06:39:53.902Z,5.20
2023-01-15T06:40:53.948Z,5.90
2023-01-15T06:41:53.988Z,5.10
2023-01-15T06:42:53.925Z,5.40
2023-01-15T06:43:53.927Z,5.10
2023-01-15T06:44:53.849Z,6.50
2023-01-15T06:45:53.867Z,5.20
2023-01-15T06:46:53.765Z,8.50
2023-01-15T06:47:53.901Z,3.20
2023-01-15T06:48:53.765Z,5.80
2023-01-15T06:49:53.760Z,4.40
2023-01-15T06:50:53.732Z,7.90
2023-01-15T06:51:53.732Z,7.60
2023-01-15T06:52:53.723Z,6.30
2023-01-15T06:53:53.707Z,6.20
2023-01-15T06:54:53.572Z,4.80
2023-01-15T06:55:53.684Z,3.90
2023-01-15T06:56:53.673Z,4.80
2023-01-15T06:57:53.495Z,5.30
2023-01-15T06:58:53.677Z,6.90
2023-01-15T06:59:53.667Z,6.50
2023-01-15T07:00:53.643Z,7.40
2023-01-15T07:01:53.612Z,6.00
2023-01-15T07:02:53.699Z,4.90
2023-01-15T07:03:53.539Z,5.90
2023-01-15T07:04:53.364Z,6.70
2023-01-15T07:05:53.378Z,3.60
2023-01-15T07:06:53.440Z,5.00
2023-01-15T07:07:53.558Z,5.70
2023-01-15T07:08:53.615Z,4.80
2023-01-15T07:09:53.583Z,7.10
2023-01-15T07:10:53.555Z,5.90
2023-01-15T07:11:53.540Z,4.90
2023-01-15T07:12:53.539Z,7.40
2023-01-15T07:13:53.271Z,6.90
2023-01-15T07:14:53.591Z,4.90
2023-01-15T07:15:53.625Z,8.10
2023-01-15T07:16:53.466Z,5.40
2023-01-15T07:17:53.258Z,8.90
2023-01-15T07:18:53.233Z,6.20
2023-01-15T07:19:53.505Z,5.90
2023-01-15T07:20:53.228Z,6.30
2023-01-15T07:21:53.227Z,4.30
2023-01-15T07:22:53.370Z,6.50
2023-01-15T07:23:53.151Z,6.80
2023-01-15T07:24:53.382Z,4.70
2023-01-15T07:25:53.449Z,5.80
2023-01-15T07:26:53.358Z,6.00
2023-01-15T07:27:53.359Z,5.40
2023-01-15T07:28:53.144Z,6.90
2023-01-15T07:29:53.373Z,6.60
2023-01-15T07:30:53.131Z,6.10
2023-01-15T07:31:53.137Z,6.20
2023-01-15T07:32:53.328Z,6.60
2023-01-15T07:33:53.303Z,6.20
2023-01-15T07:34:53.072Z,6.20
2023-01-15T07:35:53.352Z,6.00
2023-01-15T07:36:53.272Z,8.10
2023-01-15T07:37:53.241Z,6.60
2023-01-15T07:38:53.237Z,8.10
2023-01-15T07:39:52.985Z,7.10
2023-01-15T07:40:53.203Z,7.00
2023-01-15T07:41:53.148Z,9.60
2023-01-15T07:42:52.950Z,5.40
2023-01-15T07:43:53.037Z,7.30
2023-01-15T07:44:52.980Z,7.30
2023-01-15T07:45:53.261Z,6.50
2023-01-15T07:46:53.119Z,5.60
2023-01-15T07:47:52.972Z,9.50
2023-01-15T07:48:52.979Z,8.20
2023-01-15T07:49:52.911Z,8.00
2023-01-15T07:50:53.071Z,7.60
2023-01-15T07:51:53.087Z,8.10
2023-01-15T07:52:53.606Z,6.60
2023-01-15T07:53:52.852Z,7.20
2023-01-15T07:54:53.003Z,10.70
2023-01-15T07:55:53.009Z,8.00
2023-01-15T07:56:52.801Z,7.50
2023-01-15T07:57:52.877Z,6.80
2023-01-15T07:58:52.805Z,6.30
2023-01-15T07:59:52.957Z,6.40
2023-01-15T08:00:52.929Z,7.90
2023-01-15T08:01:53.059Z,6.80
2023-01-15T08:02:53.026Z,6.30
2023-01-15T08:03:52.979Z,6.20
2023-01-15T08:04:53.002Z,7.30
2023-01-15T08:05:52.858Z,8.50
2023-01-15T08:06:52.851Z,6.50
2023-01-15T08:07:52.707Z,7.20
2023-01-15T08:08:52.832Z,7.60
2023-01-15T08:09:52.691Z,6.90
2023-01-15T08:10:52.849Z,7.60
2023-01-15T08:11:52.783Z,6.80
2023-01-15T08:12:52.797Z,9.10
2023-01-15T08:13:52.639Z,6.70
2023-01-15T08:14:52.704Z,7.60
2023-01-15T08:15:52.824Z,9.00
2023-01-15T08:16:52.687Z,7.30
2023-01-15T08:17:52.837Z,6.40
2023-01-15T08:18:52.760Z,7.60
2023-01-15T08:19:52.545Z,6.70
2023-01-15T08:20:52.562Z,6.40
2023-01-15T08:21:52.658Z,5.90
2023-01-15T08:22:52.734Z,6.60
2023-01-15T08:23:52.649Z,9.50
2023-01-15T08:24:52.551Z,6.60
2023-01-15T08:25:52.507Z,4.00
2023-01-15T08:26:52.629Z,6.10
2023-01-15T08:27:52.624Z,7.70
2023-01-15T08:28:52.697Z,6.90
2023-01-15T08:29:52.505Z,4.60
2023-01-15T08:30:52.511Z,9.10
2023-01-15T08:31:52.439Z,5.80
2023-01-15T08:32:52.546Z,5.40
2023-01-15T08:33:52.454Z,8.10
2023-01-15T08:34:52.718Z,9.50
2023-01-15T08:35:52.563Z,7.10
2023-01-15T08:36:52.439Z,12.00
2023-01-15T08:37:52.689Z,5.40
2023-01-15T08:38:52.423Z,7.10
2023-01-15T08:39:52.451Z,6.30
2023-01-15T08:40:52.386Z,8.10
2023-01-15T08:41:52.306Z,5.40
2023-01-15T08:42:52.556Z,5.80
2023-01-15T08:43:52.484Z,6.50
2023-01-15T08:44:52.399Z,8.10
2023-01-15T08:45:52.317Z,9.30
2023-01-15T08:46:52.500Z,5.70
2023-01-15T08:47:52.265Z,8.80
2023-01-15T08:48:52.348Z,6.10
2023-01-15T08:49:52.423Z,6.10
2023-01-15T08:50:52.433Z,7.50
2023-01-15T08:51:52.327Z,6.60
2023-01-15T08:52:52.331Z,5.20
2023-01-15T08:53:52.243Z,5.60
2023-01-15T08:54:52.250Z,4.40
2023-01-15T08:55:52.197Z,5.30
2023-01-15T08:56:52.371Z,2.80
2023-01-15T08:57:52.266Z,4.80
2023-01-15T08:58:52.282Z,4.90
2023-01-15T08:59:52.144Z,5.30
2023-01-15T09:00:52.378Z,4.70
2023-01-15T09:01:52.200Z,4.10
2023-01-15T09:02:52.143Z,5.00
2023-01-15T09:03:52.130Z,2.60
2023-01-15T09:04:52.182Z,1.40
2023-01-15T09:05:52.078Z,3.60
2023-01-15T09:06:52.219Z,2.70
2023-01-15T09:07:52.149Z,4.20
2023-01-15T09:08:52.066Z,4.60
2023-01-15T09:09:52.009Z,4.30
2023-01-15T09:10:52.143Z,4.80
2023-01-15T09:11:52.075Z,3.30
2023-01-15T09:12:52.058Z,4.40
2023-01-15T09:13:52.144Z,3.50
2023-01-15T09:14:56.764Z,2.60
2023-01-15T09:15:52.159Z,2.60
2023-01-15T09:16:51.968Z,4.20
2023-01-15T09:17:52.158Z,3.70
2023-01-15T09:18:52.065Z,4.50
2023-01-15T09:19:52.073Z,2.90
2023-01-15T09:20:52.043Z,3.20
2023-01-15T09:21:52.038Z,3.30
2023-01-15T09:22:52.076Z,2.00
2023-01-15T09:23:52.179Z,3.10
2023-01-15T09:24:51.956Z,3.90
2023-01-15T09:25:53.076Z,3.60
2023-01-15T09:26:52.111Z,3.70
2023-01-15T09:27:51.954Z,4.60
2023-01-15T09:28:51.927Z,4.60
2023-01-15T09:29:51.962Z,2.90
2023-01-15T09:30:51.957Z,2.60
2023-01-15T09:31:51.990Z,5.30
2023-01-15T09:32:51.872Z,3.90
2023-01-15T09:33:51.996Z,4.30
2023-01-15T09:34:51.990Z,4.40
2023-01-15T09:35:51.751Z,3.90
2023-01-15T09:36:51.956Z,4.30
2023-01-15T09:37:51.943Z,5.10
2023-01-15T09:38:51.908Z,4.50
2023-01-15T09:39:51.874Z,4.00
2023-01-15T09:40:51.850Z,4.10
2023-01-15T09:41:51.819Z,4.70
2023-01-15T09:42:51.710Z,1.90
2023-01-15T09:43:51.973Z,4.40
2023-01-15T09:44:51.859Z,5.40
2023-01-15T09:45:51.971Z,5.80
2023-01-15T09:46:51.834Z,4.30
2023-01-15T09:47:51.835Z,6.10
2023-01-15T09:48:51.885Z,4.30
2023-01-15T09:49:51.785Z,5.00
2023-01-15T09:50:51.767Z,6.40
2023-01-15T09:51:51.741Z,5.70
2023-01-15T09:52:51.739Z,2.50
2023-01-15T09:53:51.804Z,3.90
2023-01-15T09:54:51.707Z,6.20
2023-01-15T09:55:51.779Z,4.50
2023-01-15T09:56:51.693Z,3.60
2023-01-15T09:57:51.694Z,5.80
2023-01-15T09:58:51.696Z,5.50
2023-01-15T09:59:51.684Z,6.10
2023-01-15T10:00:51.756Z,6.80
2023-01-15T10:01:51.662Z,8.50
2023-01-15T10:02:51.501Z,7.30
2023-01-15T10:03:51.519Z,7.20
2023-01-15T10:04:51.642Z,4.30
2023-01-15T10:05:51.720Z,5.40
2023-01-15T10:06:51.415Z,6.30
2023-01-15T10:07:51.632Z,5.60
2023-01-15T10:08:51.500Z,7.30
2023-01-15T10:09:51.382Z,7.60
2023-01-15T10:10:51.616Z,5.70
2023-01-15T10:11:51.604Z,7.70
2023-01-15T10:12:51.445Z,7.70
2023-01-15T10:13:51.599Z,7.20
2023-01-15T10:14:51.445Z,7.30
2023-01-15T10:15:51.329Z,7.10
2023-01-15T10:16:51.305Z,6.10
2023-01-15T10:17:51.425Z,7.50
2023-01-15T10:18:51.414Z,6.30
2023-01-15T10:19:51.422Z,5.50
2023-01-15T10:20:51.390Z,4.80
2023-01-15T10:21:51.294Z,6.90
2023-01-15T10:22:51.392Z,5.50
2023-01-15T10:23:51.366Z,6.90
2023-01-15T10:24:51.500Z,5.30
2023-01-15T10:25:51.347Z,6.80
2023-01-15T10:26:51.314Z,5.30
2023-01-15T10:27:51.299Z,5.00
2023-01-15T10:28:51.277Z,7.30
2023-01-15T10:29:51.262Z,7.40
2023-01-15T10:30:51.474Z,7.10
2023-01-15T10:31:51.395Z,6.60
2023-01-15T10:33:06.564Z,7.10
2023-01-15T10:33:51.190Z,5.30
2023-01-15T10:34:51.379Z,6.90
2023-01-15T10:35:51.289Z,7.40
2023-01-15T10:36:51.280Z,7.10
2023-01-15T10:37:51.270Z,6.60
2023-01-15T10:38:51.325Z,5.90
2023-01-15T10:39:51.309Z,6.70
2023-01-15T10:40:51.108Z,7.20
2023-01-15T10:41:51.070Z,4.20
2023-01-15T10:42:51.193Z,6.10
2023-01-15T10:43:51.050Z,6.30
2023-01-15T10:44:51.087Z,5.60
2023-01-15T10:45:51.119Z,8.90
2023-01-15T10:46:52.352Z,6.50
2023-01-15T10:47:51.061Z,5.30
2023-01-15T10:48:51.212Z,6.00
2023-01-15T10:49:51.003Z,7.00
2023-01-15T10:50:50.959Z,5.00
2023-01-15T10:51:51.242Z,4.50
2023-01-15T10:52:51.149Z,5.30
2023-01-15T10:53:51.152Z,5.70
2023-01-15T10:54:51.026Z,5.80
2023-01-15T10:55:50.971Z,7.30
2023-01-15T10:56:51.189Z,5.30
2023-01-15T10:57:54.312Z,5.20
2023-01-15T10:58:50.957Z,4.60
2023-01-15T10:59:50.923Z,4.00
2023-01-15T11:00:51.123Z,5.50
2023-01-15T11:01:51.005Z,5.80
2023-01-15T11:02:50.934Z,5.00
2023-01-15T11:03:50.992Z,4.40
2023-01-15T11:04:50.809Z,5.60
2023-01-15T11:05:50.802Z,5.10
2023-01-15T11:06:50.821Z,4.60
2023-01-15T11:08:16.512Z,5.00
2023-01-15T11:09:50.975Z,5.30
2023-01-15T11:10:50.750Z,4.20
2023-01-15T11:11:50.796Z,3.90
2023-01-15T11:12:50.777Z,7.10
2023-01-15T11:13:50.752Z,6.70
2023-01-15T11:14:50.801Z,7.60
2023-01-15T11:15:50.820Z,6.00
2023-01-15T11:16:50.813Z,5.70
2023-01-15T11:17:50.748Z,3.00
2023-01-15T11:18:50.737Z,4.50
2023-01-15T11:19:50.976Z,3.60
2023-01-15T11:20:50.690Z,6.50
2023-01-15T11:21:50.782Z,3.60
2023-01-15T11:22:50.693Z,6.20
2023-01-15T11:23:50.755Z,4.40
2023-01-15T11:24:50.761Z,5.60
2023-01-15T11:25:50.730Z,4.60
2023-01-15T11:26:50.726Z,6.10
2023-01-15T11:27:50.643Z,5.20
2023-01-15T11:28:50.630Z,3.80
2023-01-15T11:29:50.644Z,5.20
2023-01-15T11:30:50.646Z,5.70
2023-01-15T11:31:50.559Z,3.60
2023-01-15T11:32:50.552Z,4.10
2023-01-15T11:33:50.576Z,6.80
2023-01-15T11:34:50.570Z,4.80
2023-01-15T11:35:50.533Z,5.50
2023-01-15T11:36:50.470Z,4.70
2023-01-15T11:37:50.526Z,7.00
2023-01-15T11:38:50.520Z,5.60
2023-01-15T11:39:50.472Z,6.60
2023-01-15T11:40:52.695Z,4.60
2023-01-15T11:41:50.526Z,5.30
2023-01-15T11:42:50.442Z,8.10
2023-01-15T11:43:50.428Z,7.20
2023-01-15T11:44:50.465Z,4.50
2023-01-15T11:45:50.411Z,4.30
2023-01-15T11:46:50.396Z,7.00
2023-01-15T11:47:50.474Z,3.90
2023-01-15T11:48:50.427Z,3.80
2023-01-15T11:49:50.573Z,4.00
2023-01-15T11:50:50.410Z,6.00
2023-01-15T11:51:50.324Z,4.90
2023-01-15T11:52:50.466Z,5.40
2023-01-15T11:53:50.350Z,5.90
2023-01-15T11:54:50.365Z,7.30
2023-01-15T11:55:50.297Z,7.10
2023-01-15T11:56:50.284Z,6.20
2023-01-15T11:57:50.250Z,6.50
2023-01-15T11:58:50.510Z,7.80
2023-01-15T11:59:50.277Z,5.60
2023-01-15T12:00:50.220Z,5.20
2023-01-15T12:01:50.286Z,5.10
2023-01-15T12:02:50.309Z,5.60
2023-01-15T12:03:50.562Z,6.70
2023-01-15T12:04:50.206Z,5.20
2023-01-15T12:05:50.250Z,6.00
2023-01-15T12:06:50.376Z,6.30
2023-01-15T12:07:50.157Z,7.70
2023-01-15T12:08:50.344Z,6.50
2023-01-15T12:09:50.178Z,5.30
2023-01-15T12:10:50.124Z,6.60
2023-01-15T12:11:50.383Z,6.70
2023-01-15T12:12:50.299Z,7.50
2023-01-15T12:13:50.128Z,6.10
2023-01-15T12:14:50.267Z,7.10
2023-01-15T12:15:50.287Z,4.60
2023-01-15T12:16:50.272Z,6.20
2023-01-15T12:17:50.199Z,6.90
2023-01-15T12:18:50.308Z,6.60
2023-01-15T12:19:50.279Z,6.20
2023-01-15T12:20:50.270Z,7.10
2023-01-15T12:21:50.235Z,6.10
2023-01-15T12:22:50.284Z,5.60
2023-01-15T12:23:50.184Z,5.50
2023-01-15T12:24:50.320Z,5.70
2023-01-15T12:25:50.224Z,6.40
2023-01-15T12:26:50.148Z,6.50
2023-01-15T12:27:50.156Z,6.30
2023-01-15T12:28:49.981Z,6.20
2023-01-15T12:29:50.150Z,5.60
2023-01-15T12:30:50.078Z,6.40
2023-01-15T12:31:50.151Z,7.80
2023-01-15T12:32:50.215Z,5.40
2023-01-15T12:33:50.074Z,5.30
2023-01-15T12:34:50.152Z,5.90
2023-01-15T12:35:49.898Z,3.40
2023-01-15T12:36:50.080Z,4.90
2023-01-15T12:37:50.071Z,8.40
2023-01-15T12:38:50.151Z,6.60
2023-01-15T12:39:50.058Z,5.30
2023-01-15T12:40:50.018Z,5.00
2023-01-15T12:41:50.051Z,5.80
2023-01-15T12:42:49.781Z,8.10
2023-01-15T12:43:50.042Z,6.20
2023-01-15T12:44:49.941Z,5.40
2023-01-15T12:45:49.840Z,4.30
2023-01-15T12:46:49.979Z,7.30
2023-01-15T12:47:49.937Z,6.00
2023-01-15T12:48:49.900Z,5.10
2023-01-15T12:49:49.961Z,8.20
2023-01-15T12:50:49.927Z,7.10
2023-01-15T12:51:49.907Z,8.90
2023-01-15T12:52:49.899Z,6.40
2023-01-15T12:53:49.902Z,5.60
2023-01-15T12:54:49.645Z,5.80
2023-01-15T12:55:49.733Z,8.20
2023-01-15T12:56:49.824Z,5.30
2023-01-15T12:57:49.625Z,4.20
2023-01-15T12:58:49.855Z,5.00
2023-01-15T12:59:49.741Z,6.30
2023-01-15T13:00:49.926Z,7.50
2023-01-15T13:01:49.930Z,6.70
2023-01-15T13:02:52.149Z,7.20
2023-01-15T13:03:49.760Z,5.40
2023-01-15T13:04:49.550Z,8.10
2023-01-15T13:05:49.540Z,5.40
2023-01-15T13:06:49.574Z,8.10
2023-01-15T13:07:49.640Z,5.90
2023-01-15T13:08:49.707Z,4.90
2023-01-15T13:09:49.705Z,4.90
2023-01-15T13:10:49.478Z,8.50
2023-01-15T13:11:49.766Z,5.80
2023-01-15T13:12:49.758Z,9.30
2023-01-15T13:13:49.666Z,4.70
2023-01-15T13:14:49.586Z,6.10
2023-01-15T13:15:49.669Z,6.80
2023-01-15T13:16:49.670Z,5.60
2023-01-15T13:17:49.457Z,6.70
2023-01-15T13:18:49.688Z,7.60
2023-01-15T13:19:49.635Z,7.90